Abingdon, Virginia
Current Conditions -  °F | °C
As of 7:55 AM on Friday 24 Oct 2014 (Local Time) from KVJI Reporting Station
Haze Haze  
Wind Chill: 40°   Ceiling: Unl
Heat Index: 40°   Visibility: 5mi
Dew Point: 39°   Wind: 3mph
Humidity: 97%   Direction: 80°E
Pressure: 30.11"   Gusts: NA
Location:  36.71°N, 81.98°W
Report Text: KVJI 241155Z AUTO 08003KT 5SM BR CLR 05/04 A3011 RMK AO2 T00450040 10047 20026
Loading
Personal Weather Stations






























Interactive Weather Map
Tropical Storm Tracking
New forecast layout! Learn more

10-Day Weather Forecast

Advertisements
Track Severe Weather on mobile